Agate, Nebraska
Current Conditions -  °F | °C
As of 9:53 AM on Thursday 27 Nov 2014 (Local Time) from KTOR Reporting Station
Clear Clear  
Wind Chill: 23°   Ceiling: Unl
Heat Index: 28°   Visibility: 8mi
Dew Point: 27°   Wind: 5mph
Humidity: 96%   Direction: NA
Pressure: 30.1"   Gusts: NA
Location:  42.42°N, 103.79°W
Report Text: KTOR 271653Z AUTO VRB04KT 8SM CLR M02/M03 A3010 RMK AO2 SLP231 T10221028 $
Loading
Personal Weather Stations






























Interactive Weather Map New forecast layout! Learn more

10-Day Weather Forecast

Advertisements
Track Severe Weather on mobile